Time;durP1;ratioP1;P1;durP2;ratioP2;P2;SDS_P1;SDS_P2;PMS_P1;PMS_P2;Temp;Humidity;BMP_temperature;BMP_pressure;BME280_temperature;BME280_humidity;BME280_pressure;Samples;Min_cycle;Max_cycle;Signal;HPM_P1;HPM_P2
2021/08/14 00:01:27;;;;;;;18.37;13.07;;;;;;;15.61;86.40;101220.97;1814627;77;21519;-73
2021/08/14 00:03:54;;;;;;;18.67;12.83;;;;;;;15.52;86.01;101218.57;1823728;77;21485;-75
2021/08/14 00:06:20;;;;;;;13.00;11.60;;;;;;;15.47;85.67;101222.64;1817496;76;21490;-74
2021/08/14 00:08:47;;;;;;;16.43;11.70;;;;;;;15.43;85.96;101225.59;1820755;77;21506;-73
2021/08/14 00:11:15;;;;;;;17.57;12.50;;;;;;;15.43;85.96;101225.59;1820793;77;21439;-74
2021/08/14 00:13:43;;;;;;;14.13;11.70;;;;;;;15.39;85.79;101223.98;1828906;76;21450;-74
2021/08/14 00:16:10;;;;;;;16.87;11.63;;;;;;;15.35;85.45;101228.84;1814429;77;21562;-73
2021/08/14 00:18:38;;;;;;;14.40;12.00;;;;;;;15.35;85.45;101228.84;1819961;78;21414;-74
2021/08/14 00:21:07;;;;;;;13.93;11.37;;;;;;;15.26;85.38;101238.00;1806577;77;21511;-74
2021/08/14 00:23:33;;;;;;;12.67;11.30;;;;;;;15.26;85.38;101238.00;1820196;77;22095;-74
2021/08/14 00:26:02;;;;;;;14.97;11.37;;;;;;;15.20;85.64;101238.57;1825370;77;21382;-74
2021/08/14 00:28:29;;;;;;;16.10;12.63;;;;;;;15.19;85.63;101238.83;1827054;78;21244;-74
2021/08/14 00:30:55;;;;;;;14.60;12.77;;;;;;;15.14;85.73;101249.06;1836414;77;21414;-74
2021/08/14 00:33:22;;;;;;;17.23;13.03;;;;;;;15.14;86.14;101243.69;1822798;76;21441;-73
2021/08/14 00:35:49;;;;;;;17.83;13.70;;;;;;;15.18;87.42;101242.06;1833560;78;21323;-73
2021/08/14 00:38:17;;;;;;;14.53;12.57;;;;;;;15.18;87.42;101242.06;1827762;77;21876;-73
2021/08/14 00:40:45;;;;;;;15.00;12.17;;;;;;;15.21;87.86;101248.25;1808164;78;21799;-73
2021/08/14 00:43:11;;;;;;;14.27;11.63;;;;;;;15.22;88.12;101244.47;1822890;76;21488;-73
2021/08/14 00:45:42;;;;;;;14.83;11.83;;;;;;;15.21;88.20;101246.09;1830891;78;21385;-73
2021/08/14 00:48:09;;;;;;;15.27;12.70;;;;;;;15.22;88.35;101249.05;1809572;77;21305;-73
2021/08/14 00:50:37;;;;;;;15.63;13.23;;;;;;;15.23;88.96;101248.80;1831175;78;21434;-73
2021/08/14 00:53:04;;;;;;;17.07;13.20;;;;;;;15.28;89.44;101251.20;1839540;77;21548;-74
2021/08/14 00:55:32;;;;;;;17.23;13.93;;;;;;;15.39;90.18;101254.14;1826249;76;21429;-73
2021/08/14 00:57:58;;;;;;;18.40;13.20;;;;;;;15.39;90.18;101254.14;1827570;78;21497;-73
2021/08/14 01:00:34;;;;;;;19.00;13.47;;;;;;;15.48;91.12;101257.89;1820785;77;21379;-73
2021/08/14 01:03:27;;;;;;;18.23;13.60;;;;;;;15.48;91.12;101257.89;1773680;79;21951;-73
2021/08/14 01:06:24;;;;;;;15.47;13.43;;;;;;;15.53;91.15;101261.94;1750078;79;21049;-74
2021/08/14 01:08:52;;;;;;;20.13;13.27;;;;;;;15.62;91.47;101258.92;1795301;79;21920;-73
2021/08/14 01:11:19;;;;;;;17.10;12.37;;;;;;;15.62;91.47;101258.92;1786268;78;21553;-73
2021/08/14 01:13:46;;;;;;;15.67;12.43;;;;;;;15.62;91.74;101260.82;1778943;80;21485;-73
2021/08/14 01:16:13;;;;;;;14.80;11.80;;;;;;;15.59;91.32;101272.13;1797767;78;21597;-74
2021/08/14 01:18:42;;;;;;;17.40;11.67;;;;;;;15.55;91.11;101271.08;1790618;80;21621;-73
2021/08/14 01:21:09;;;;;;;17.77;10.93;;;;;;;15.55;91.11;101271.08;1790900;78;21730;-72
2021/08/14 01:23:42;;;;;;;14.53;9.97;;;;;;;15.42;90.02;101274.59;1800065;79;21312;-73
2021/08/14 01:26:10;;;;;;;14.40;9.67;;;;;;;15.34;89.63;101275.69;1806433;78;22059;-73
2021/08/14 01:28:38;;;;;;;13.70;9.43;;;;;;;15.19;89.56;101271.92;1780882;79;21663;-73
2021/08/14 01:31:08;;;;;;;11.03;8.97;;;;;;;15.11;89.42;101264.95;1773869;80;21511;-74
2021/08/14 01:33:37;;;;;;;11.97;9.10;;;;;;;15.06;89.05;101267.08;1826399;77;21513;-73
2021/08/14 01:36:08;;;;;;;11.17;8.87;;;;;;;15.06;89.05;101267.08;1809825;77;21459;-74
2021/08/14 01:38:46;;;;;;;9.90;8.63;;;;;;;15.00;88.90;101262.27;1794262;77;21540;-74
2021/08/14 01:41:13;;;;;;;10.40;8.50;;;;;;;14.96;88.68;101257.67;1811727;78;22251;-74
2021/08/14 01:43:55;;;;;;;10.83;8.33;;;;;;;14.91;88.47;101263.06;1814541;77;21880;-73
2021/08/14 01:46:22;;;;;;;14.53;9.57;;;;;;;14.85;88.27;101261.44;1802455;77;21357;-74
2021/08/14 01:48:49;;;;;;;12.13;8.63;;;;;;;14.76;88.28;101259.27;1815242;78;21273;-73
2021/08/14 01:51:16;;;;;;;11.87;7.90;;;;;;;14.76;88.28;101259.27;1819488;78;21859;-74
2021/08/14 01:53:51;;;;;;;11.90;9.20;;;;;;;14.72;87.83;101259.54;1817809;77;21402;-74
2021/08/14 01:56:18;;;;;;;10.80;8.67;;;;;;;14.64;87.62;101262.77;1802491;78;21305;-74
2021/08/14 01:58:46;;;;;;;11.63;8.63;;;;;;;14.54;87.46;101261.38;1803081;77;21843;-74
2021/08/14 02:01:15;;;;;;;10.90;9.40;;;;;;;14.47;87.36;101266.18;1781886;80;21375;-74
2021/08/14 02:03:46;;;;;;;11.50;9.30;;;;;;;14.34;87.19;101267.48;1797175;77;21237;-74
2021/08/14 02:06:16;;;;;;;11.00;8.93;;;;;;;14.34;87.19;101267.48;1799182;78;21513;-75
2021/08/14 02:08:43;;;;;;;11.30;9.63;;;;;;;14.27;87.58;101265.05;1794171;77;21189;-74
2021/08/14 02:11:13;;;;;;;11.10;9.63;;;;;;;14.21;87.87;101261.27;1807005;77;21367;-74
2021/08/14 02:13:42;;;;;;;14.53;10.50;;;;;;;14.17;88.30;101252.93;1796893;78;21192;-73
2021/08/14 02:16:09;;;;;;;12.90;9.77;;;;;;;14.17;88.30;101252.93;1809151;78;21542;-74
2021/08/14 02:18:36;;;;;;;11.23;9.40;;;;;;;14.19;88.42;101256.71;1795453;79;21276;-73
2021/08/14 02:21:05;;;;;;;10.70;9.63;;;;;;;14.19;88.64;101256.17;1802496;77;21231;-73
2021/08/14 02:23:32;;;;;;;13.13;10.27;;;;;;;14.18;88.86;101257.25;1790675;79;21251;-74
2021/08/14 02:25:59;;;;;;;12.80;10.10;;;;;;;14.18;89.05;101259.94;1790123;77;21240;-74
2021/08/14 02:28:26;;;;;;;12.17;9.63;;;;;;;14.17;89.24;101259.64;1796698;79;21381;-74
2021/08/14 02:30:56;;;;;;;10.43;9.07;;;;;;;14.17;89.34;101262.33;1783848;79;21212;-73
2021/08/14 02:33:23;;;;;;;12.20;9.97;;;;;;;14.17;89.36;101263.67;1770292;80;21277;-73
2021/08/14 02:35:50;;;;;;;12.37;9.80;;;;;;;14.16;89.35;101264.75;1775496;78;21368;-73
2021/08/14 02:38:17;;;;;;;10.50;8.77;;;;;;;14.11;89.30;101263.38;1784134;78;21190;-73
2021/08/14 02:40:48;;;;;;;10.47;9.37;;;;;;;14.11;89.30;101263.38;1762905;81;21302;-73
2021/08/14 02:43:15;;;;;;;10.37;9.23;;;;;;;14.10;89.31;101265.80;1787912;79;21343;-73
2021/08/14 02:45:42;;;;;;;11.73;9.03;;;;;;;14.09;89.41;101261.52;1786536;79;21198;-73
2021/08/14 02:48:09;;;;;;;9.60;8.60;;;;;;;14.08;89.59;101263.39;1790637;78;21237;-73
2021/08/14 02:50:36;;;;;;;12.07;9.73;;;;;;;14.10;89.69;101259.63;1767161;80;21275;-74
2021/08/14 02:53:03;;;;;;;11.17;9.50;;;;;;;14.12;89.77;101265.02;1791830;79;21193;-74
2021/08/14 02:55:31;;;;;;;10.70;9.60;;;;;;;14.13;89.89;101267.97;1785945;79;21841;-74
2021/08/14 02:58:00;;;;;;;10.00;8.93;;;;;;;14.15;89.97;101269.87;1788805;77;21283;-74
2021/08/14 03:00:29;;;;;;;10.30;8.80;;;;;;;14.16;90.00;101270.13;1798179;79;21242;-73
2021/08/14 03:02:57;;;;;;;10.23;8.77;;;;;;;14.17;89.99;101269.59;1794065;78;21848;-73
2021/08/14 03:05:25;;;;;;;11.30;9.27;;;;;;;14.18;90.01;101267.17;1797051;79;21170;-74
2021/08/14 03:07:52;;;;;;;10.33;8.37;;;;;;;14.18;90.20;101266.66;1793794;78;21681;-75
2021/08/14 03:10:20;;;;;;;11.00;9.90;;;;;;;14.20;90.33;101263.16;1798201;79;21856;-74
2021/08/14 03:12:49;;;;;;;10.23;9.13;;;;;;;14.21;90.38;101263.41;1778661;79;21337;-74
2021/08/14 03:15:16;;;;;;;10.03;8.63;;;;;;;14.22;90.41;101261.02;1802323;79;21330;-74
2021/08/14 03:17:44;;;;;;;10.77;8.57;;;;;;;14.26;90.43;101269.36;1787204;78;21370;-73
2021/08/14 03:20:12;;;;;;;9.83;8.83;;;;;;;14.30;90.47;101266.41;1795414;77;21457;-75
2021/08/14 03:22:38;;;;;;;9.43;8.53;;;;;;;14.31;90.56;101262.12;1807606;79;21197;-74
2021/08/14 03:25:09;;;;;;;11.33;9.30;;;;;;;14.35;90.58;101266.98;1789976;79;21297;-74
2021/08/14 03:27:36;;;;;;;11.30;9.10;;;;;;;14.36;90.60;101264.55;1793551;77;21259;-75
2021/08/14 03:30:04;;;;;;;11.93;10.13;;;;;;;14.40;90.64;101271.80;1801040;78;21244;-75
2021/08/14 03:32:32;;;;;;;13.20;10.97;;;;;;;14.42;90.67;101268.33;1780878;79;21270;-75
2021/08/14 03:34:59;;;;;;;12.80;9.87;;;;;;;14.47;90.67;101264.84;1801863;79;21385;-75
2021/08/14 03:37:25;;;;;;;12.30;9.83;;;;;;;14.52;90.66;101264.35;1798273;77;21384;-73
2021/08/14 03:39:53;;;;;;;11.80;10.53;;;;;;;14.57;90.66;101261.39;1798251;77;21259;-74
2021/08/14 03:42:22;;;;;;;12.37;10.87;;;;;;;14.60;90.67;101258.98;1763396;79;21788;-73
2021/08/14 03:44:49;;;;;;;13.20;11.80;;;;;;;14.69;91.00;101258.73;1797676;78;21741;-73
2021/08/14 03:47:16;;;;;;;12.80;11.40;;;;;;;14.69;91.00;101258.73;1776083;78;21467;-74
2021/08/14 03:49:44;;;;;;;14.43;12.93;;;;;;;14.75;90.54;101261.70;1797591;79;21732;-74
2021/08/14 03:52:10;;;;;;;14.40;12.90;;;;;;;14.76;90.40;101261.95;1782932;79;21536;-73
2021/08/14 03:54:37;;;;;;;15.20;13.20;;;;;;;14.81;90.63;101264.37;1801021;79;21506;-74
2021/08/14 03:57:05;;;;;;;17.00;13.37;;;;;;;14.81;90.63;101264.37;1784362;78;21874;-74
2021/08/14 03:59:33;;;;;;;16.20;13.30;;;;;;;14.87;90.42;101268.69;1784937;78;21388;-73
2021/08/14 04:01:59;;;;;;;15.30;13.70;;;;;;;14.94;90.54;101267.91;1785875;79;21458;-73
2021/08/14 04:04:26;;;;;;;17.37;14.67;;;;;;;15.03;90.71;101275.69;1792424;79;21520;-74
2021/08/14 04:06:53;;;;;;;15.83;13.53;;;;;;;15.14;90.88;101267.91;1789647;79;21470;-74
2021/08/14 04:09:19;;;;;;;17.03;14.37;;;;;;;15.37;90.74;101269.23;1791443;78;21551;-73
2021/08/14 04:11:47;;;;;;;16.27;14.37;;;;;;;15.37;90.74;101269.23;1788454;79;21543;-74
2021/08/14 04:14:14;;;;;;;17.77;14.50;;;;;;;15.53;91.12;101272.70;1792965;79;21541;-73
2021/08/14 04:16:42;;;;;;;15.77;14.07;;;;;;;15.66;91.21;101268.13;1788277;78;21500;-73
2021/08/14 04:19:10;;;;;;;18.67;14.90;;;;;;;15.81;91.31;101269.16;1789625;78;21771;-74
2021/08/14 04:21:36;;;;;;;16.70;14.40;;;;;;;15.95;91.27;101270.17;1793179;78;21775;-73
2021/08/14 04:24:04;;;;;;;15.60;13.97;;;;;;;16.10;91.24;101272.02;1790156;79;21787;-73
2021/08/14 04:26:30;;;;;;;15.10;13.20;;;;;;;16.27;91.20;101275.70;1789354;79;21692;-73
2021/08/14 04:28:57;;;;;;;16.90;13.47;;;;;;;16.41;91.14;101271.30;1782299;78;21755;-73
2021/08/14 04:31:24;;;;;;;16.37;13.17;;;;;;;16.56;91.10;101276.62;1786632;79;21711;-74
2021/08/14 04:33:51;;;;;;;16.00;12.57;;;;;;;16.73;90.98;101280.83;1785666;78;21745;-73
2021/08/14 04:36:17;;;;;;;14.63;12.23;;;;;;;16.87;90.74;101273.73;1769057;79;21727;-73
2021/08/14 04:38:45;;;;;;;15.97;13.17;;;;;;;17.01;90.61;101271.19;1784375;78;21046;-74
2021/08/14 04:41:12;;;;;;;16.20;12.70;;;;;;;17.15;90.17;101276.77;1780899;79;21015;-73
2021/08/14 04:43:38;;;;;;;15.97;14.27;;;;;;;17.26;89.79;101273.67;1786476;79;21715;-74
2021/08/14 04:46:05;;;;;;;15.67;11.80;;;;;;;17.38;89.46;101273.86;1784988;79;21099;-74
2021/08/14 04:48:31;;;;;;;15.90;12.80;;;;;;;17.52;89.11;101272.88;1794717;78;21113;-74
2021/08/14 04:50:59;;;;;;;15.33;11.67;;;;;;;17.65;88.69;101272.75;1793604;79;20987;-73
2021/08/14 04:53:26;;;;;;;11.97;9.73;;;;;;;17.79;88.31;101276.95;1790705;78;21050;-73
2021/08/14 04:55:53;;;;;;;13.67;9.60;;;;;;;17.91;87.17;101270.59;1793576;78;20991;-74
2021/08/14 04:58:20;;;;;;;14.43;10.67;;;;;;;18.02;85.22;101266.66;1780746;78;21978;-74
2021/08/14 05:00:46;;;;;;;11.47;9.30;;;;;;;18.15;83.78;101271.11;1773509;78;21035;-74
2021/08/14 05:03:13;;;;;;;11.57;9.70;;;;;;;18.28;82.63;101275.25;1779001;78;21088;-73
2021/08/14 05:05:42;;;;;;;13.10;9.63;;;;;;;18.40;82.02;101270.78;1788268;78;21557;-74
2021/08/14 05:08:10;;;;;;;15.47;9.97;;;;;;;18.51;80.62;101266.02;1775682;78;21093;-74
2021/08/14 05:10:38;;;;;;;16.30;8.90;;;;;;;18.61;79.23;101266.42;1809678;77;21062;-74
2021/08/14 05:13:06;;;;;;;11.00;7.67;;;;;;;18.71;78.23;101270.32;1811991;77;20983;-74
2021/08/14 05:15:33;;;;;;;12.87;7.00;;;;;;;18.82;76.54;101270.47;1812115;77;21038;-74
2021/08/14 05:18:00;;;;;;;10.47;7.37;;;;;;;18.96;75.15;101265.09;1808311;77;21042;-74
2021/08/14 05:20:27;;;;;;;10.73;6.40;;;;;;;19.10;72.66;101266.48;1807859;77;21010;-74
2021/08/14 05:22:55;;;;;;;9.97;6.23;;;;;;;19.22;70.46;101262.77;1808813;77;21007;-74
2021/08/14 05:25:23;;;;;;;9.83;5.63;;;;;;;19.32;68.06;101258.52;1808755;77;21010;-73
2021/08/14 05:27:49;;;;;;;9.53;6.33;;;;;;;19.43;67.46;101255.86;1821963;78;21029;-74
2021/08/14 05:30:17;;;;;;;9.97;6.20;;;;;;;19.54;66.79;101269.22;1810500;77;21078;-75
2021/08/14 05:32:45;;;;;;;8.60;6.27;;;;;;;19.64;66.91;101267.17;1804609;77;21056;-74
2021/08/14 05:35:13;;;;;;;8.00;6.00;;;;;;;19.76;66.95;101264.50;1796463;78;21138;-73
2021/08/14 05:37:39;;;;;;;9.53;5.80;;;;;;;19.88;66.11;101266.16;1809556;78;21043;-73
2021/08/14 05:40:08;;;;;;;9.33;5.60;;;;;;;20.01;65.80;101265.91;1807619;78;21139;-73
2021/08/14 05:42:35;;;;;;;9.00;5.37;;;;;;;20.13;63.96;101268.88;1806508;78;21042;-74
2021/08/14 05:45:02;;;;;;;8.97;5.57;;;;;;;20.24;62.44;101268.13;1763482;80;21125;-74
2021/08/14 05:47:29;;;;;;;6.40;4.50;;;;;;;20.33;61.66;101264.92;1783641;78;21143;-74
2021/08/14 05:49:56;;;;;;;7.67;5.30;;;;;;;20.43;60.96;101263.89;1778809;79;21066;-74
2021/08/14 05:52:23;;;;;;;8.13;5.07;;;;;;;20.52;60.10;101264.80;1790336;78;21030;-74
2021/08/14 05:54:51;;;;;;;6.47;4.43;;;;;;;20.61;59.29;101268.39;1780739;79;21042;-74
2021/08/14 05:57:18;;;;;;;9.47;5.37;;;;;;;20.68;58.39;101259.83;1778066;78;21045;-73
2021/08/14 05:59:47;;;;;;;9.07;4.87;;;;;;;20.75;58.14;101268.34;1786701;78;21101;-74
2021/08/14 06:02:14;;;;;;;7.90;5.17;;;;;;;20.84;58.00;101267.29;1783858;79;21065;-74
2021/08/14 06:04:41;;;;;;;7.40;4.87;;;;;;;20.92;57.39;101270.37;1788187;78;21089;-74
2021/08/14 06:07:07;;;;;;;8.03;4.70;;;;;;;21.01;56.88;101265.80;1788487;78;21085;-74
2021/08/14 06:09:35;;;;;;;7.20;4.37;;;;;;;21.11;56.82;101260.67;1789846;78;21013;-74
2021/08/14 06:12:02;;;;;;;6.00;4.30;;;;;;;21.22;55.91;101268.27;1787376;79;21087;-74
2021/08/14 06:14:30;;;;;;;6.70;4.33;;;;;;;21.31;55.15;101263.66;1788084;78;21041;-75
2021/08/14 06:16:57;;;;;;;7.30;4.70;;;;;;;21.39;54.69;101268.11;1784689;78;21022;-73
2021/08/14 06:19:28;;;;;;;8.70;4.60;;;;;;;21.47;54.54;101272.23;1786235;78;21093;-73
2021/08/14 06:21:54;;;;;;;6.50;4.43;;;;;;;21.56;54.56;101266.84;1782509;78;21017;-74
2021/08/14 06:24:22;;;;;;;6.93;4.50;;;;;;;21.65;54.05;101266.33;1794809;78;21549;-74
2021/08/14 06:26:50;;;;;;;10.90;5.30;;;;;;;21.72;53.81;101272.11;1777653;79;21041;-73
2021/08/14 06:29:17;;;;;;;7.63;4.50;;;;;;;21.83;53.60;101274.53;1785852;78;21039;-74
2021/08/14 06:31:46;;;;;;;7.07;4.50;;;;;;;21.94;54.10;101282.64;1791454;79;21018;-74
2021/08/14 06:34:13;;;;;;;7.63;4.50;;;;;;;22.04;53.04;101276.10;1787373;78;21043;-73
2021/08/14 06:36:41;;;;;;;7.07;4.40;;;;;;;22.14;53.22;101275.23;1785515;78;21069;-74
2021/08/14 06:39:08;;;;;;;7.90;4.70;;;;;;;22.26;52.58;101269.77;1792043;78;20986;-74
2021/08/14 06:41:35;;;;;;;9.63;4.43;;;;;;;22.36;51.83;101264.81;1791707;78;21514;-74
2021/08/14 06:44:02;;;;;;;7.87;4.83;;;;;;;22.44;51.33;101265.93;1789812;78;21571;-75
2021/08/14 06:46:30;;;;;;;7.63;4.60;;;;;;;22.48;51.10;101267.71;1789710;78;21080;-74
2021/08/14 06:48:57;;;;;;;8.00;5.43;;;;;;;22.57;51.05;101271.77;1791434;78;21753;-74
2021/08/14 06:51:23;;;;;;;8.13;4.70;;;;;;;22.68;50.88;101273.64;1789124;78;21537;-74
2021/08/14 06:53:50;;;;;;;10.53;5.17;;;;;;;22.78;50.21;101267.86;1788513;79;21064;-74
2021/08/14 06:56:18;;;;;;;9.93;4.87;;;;;;;22.85;50.40;101274.98;1783475;78;21113;-74
2021/08/14 06:58:44;;;;;;;8.13;5.07;;;;;;;22.91;50.36;101272.33;1785697;78;21761;-74
2021/08/14 07:01:11;;;;;;;7.73;4.83;;;;;;;22.97;50.33;101270.27;1791076;78;21572;-75
2021/08/14 07:03:39;;;;;;;7.57;4.63;;;;;;;23.03;49.76;101269.52;1809868;77;20995;-74
2021/08/14 07:06:06;;;;;;;8.87;5.07;;;;;;;23.08;49.76;101266.64;1798269;79;21119;-74
2021/08/14 07:08:33;;;;;;;7.17;4.53;;;;;;;23.15;48.83;101270.45;1795650;77;21628;-74
2021/08/14 07:11:01;;;;;;;7.83;4.97;;;;;;;23.24;48.30;101270.45;1798290;77;21615;-73
2021/08/14 07:13:28;;;;;;;8.93;4.93;;;;;;;23.30;47.90;101271.88;1801586;78;21109;-74
2021/08/14 07:15:55;;;;;;;8.37;4.90;;;;;;;23.37;47.92;101272.73;1791410;78;21021;-74
2021/08/14 07:18:23;;;;;;;9.00;4.90;;;;;;;23.47;47.45;101268.28;1767063;79;20980;-73
2021/08/14 07:20:50;;;;;;;7.57;4.83;;;;;;;23.58;47.47;101269.50;1780800;78;20971;-74
2021/08/14 07:23:16;;;;;;;9.63;5.40;;;;;;;23.69;46.93;101260.98;1788020;78;21034;-75
2021/08/14 07:25:45;;;;;;;11.50;5.90;;;;;;;23.74;47.13;101253.42;1789697;79;21117;-73
2021/08/14 07:28:12;;;;;;;8.87;5.37;;;;;;;23.80;47.01;101249.95;1796419;79;21139;-74
2021/08/14 07:30:38;;;;;;;10.23;5.10;;;;;;;23.85;46.89;101249.17;1787649;78;21049;-74
2021/08/14 07:33:06;;;;;;;7.50;4.90;;;;;;;23.89;47.16;101249.34;1790542;79;20994;-74
2021/08/14 07:35:32;;;;;;;10.10;5.53;;;;;;;23.95;47.54;101244.47;1799590;79;21018;-74
2021/08/14 07:38:00;;;;;;;9.73;5.73;;;;;;;24.04;47.22;101239.77;1793170;78;21188;-75
2021/08/14 07:40:26;;;;;;;10.03;5.47;;;;;;;24.10;47.16;101237.88;1758489;78;21089;-74
2021/08/14 07:42:53;;;;;;;11.27;6.20;;;;;;;24.19;47.66;101236.45;1790230;78;21069;-74
2021/08/14 07:45:20;;;;;;;13.93;6.70;;;;;;;24.28;46.79;101235.00;1787393;78;21070;-75
2021/08/14 07:47:48;;;;;;;11.27;6.20;;;;;;;24.37;46.33;101233.58;1793142;78;21085;-75
2021/08/14 07:50:28;;;;;;;11.40;6.10;;;;;;;24.48;46.17;101229.33;1779770;78;21126;-75
2021/08/14 07:52:55;;;;;;;15.23;6.10;;;;;;;24.59;45.95;101230.53;1780801;79;21109;-75
2021/08/14 07:55:22;;;;;;;14.87;6.13;;;;;;;24.66;46.22;101227.25;1784046;79;21195;-74
2021/08/14 07:57:49;;;;;;;12.63;6.50;;;;;;;24.75;46.02;101224.67;1790673;79;21046;-75
2021/08/14 08:00:17;;;;;;;11.50;6.70;;;;;;;24.81;45.32;101226.63;1809142;77;21037;-74
2021/08/14 08:02:44;;;;;;;12.27;5.50;;;;;;;24.86;44.73;101222.30;1778141;79;21156;-73
2021/08/14 08:05:11;;;;;;;8.73;4.60;;;;;;;24.92;44.26;101222.33;1767292;80;21078;-74
2021/08/14 08:07:40;;;;;;;8.77;4.53;;;;;;;24.99;42.71;101215.73;1766663;79;21072;-75
2021/08/14 08:10:08;;;;;;;11.30;5.20;;;;;;;25.06;42.60;101215.75;1795193;79;21606;-74
2021/08/14 08:12:35;;;;;;;6.67;4.40;;;;;;;25.10;42.23;101216.66;1793639;78;21160;-74
2021/08/14 08:15:01;;;;;;;7.90;4.53;;;;;;;25.13;41.57;101216.01;1791215;79;21665;-74
2021/08/14 08:17:28;;;;;;;8.50;4.40;;;;;;;25.14;41.55;101208.03;1795603;79;21018;-74
2021/08/14 08:19:55;;;;;;;7.40;4.30;;;;;;;25.17;41.61;101210.09;1793350;78;21458;-74
2021/08/14 08:22:22;;;;;;;7.00;4.20;;;;;;;25.22;41.76;101213.97;1792760;78;21081;-74
2021/08/14 08:24:49;;;;;;;7.40;4.93;;;;;;;25.32;41.69;101208.05;1791739;79;21038;-74
2021/08/14 08:27:16;;;;;;;9.13;4.83;;;;;;;25.42;42.53;101207.60;1804502;78;21153;-73
2021/08/14 08:29:43;;;;;;;7.00;4.50;;;;;;;25.52;43.29;101207.72;1793197;79;21054;-74
2021/08/14 08:32:10;;;;;;;8.30;4.23;;;;;;;25.62;42.23;101201.78;1796305;78;21171;-74
2021/08/14 08:34:36;;;;;;;8.43;4.97;;;;;;;25.72;42.95;101199.94;1792350;79;21113;-74
2021/08/14 08:37:03;;;;;;;6.60;4.27;;;;;;;25.83;41.63;101203.05;1802543;79;21109;-74
2021/08/14 08:39:32;;;;;;;5.97;3.50;;;;;;;25.87;40.83;101202.58;1804780;78;21508;-74
2021/08/14 08:41:59;;;;;;;5.70;3.60;;;;;;;25.96;39.80;101197.78;1788319;78;21688;-74
2021/08/14 08:44:26;;;;;;;5.50;3.47;;;;;;;26.05;38.91;101194.89;1763804;79;22152;-75
2021/08/14 08:46:52;;;;;;;5.70;3.53;;;;;;;26.11;39.11;101198.19;1789227;79;21073;-74
2021/08/14 08:49:20;;;;;;;5.13;3.03;;;;;;;26.16;38.99;101191.11;1787385;78;21105;-74
2021/08/14 08:51:48;;;;;;;5.43;3.40;;;;;;;26.24;37.75;101186.63;1795390;78;21140;-75
2021/08/14 08:54:16;;;;;;;5.77;2.90;;;;;;;26.33;37.57;101192.77;1790400;78;21129;-75
2021/08/14 08:56:43;;;;;;;5.83;2.90;;;;;;;26.42;35.65;101193.38;1792077;79;21533;-74
2021/08/14 08:59:12;;;;;;;4.90;3.10;;;;;;;26.47;35.28;101197.83;1794486;79;21124;-74
2021/08/14 09:01:40;;;;;;;5.07;3.20;;;;;;;26.49;34.61;101194.18;1796225;79;21073;-74
2021/08/14 09:04:28;;;;;;;4.50;3.10;;;;;;;26.47;34.46;101193.14;1794654;78;21053;-73
2021/08/14 09:06:57;;;;;;;5.97;3.60;;;;;;;26.53;34.01;101192.36;1789123;78;21030;-74
2021/08/14 09:09:31;;;;;;;4.60;3.10;;;;;;;26.62;34.73;101188.86;1796478;79;21690;-74
2021/08/14 09:12:06;;;;;;;7.33;3.70;;;;;;;26.65;34.38;101185.42;1789294;79;21061;-74
2021/08/14 09:14:50;;;;;;;5.95;4.17;;;;;;;26.63;35.91;101187.16;1796755;78;21024;-74
2021/08/14 09:17:19;;;;;;;5.67;3.90;;;;;;;26.62;36.91;101186.95;1778230;79;21081;-74
2021/08/14 09:19:45;;;;;;;6.83;4.13;;;;;;;26.63;36.96;101178.14;1721034;79;21151;-74
2021/08/14 09:22:20;;;;;;;9.00;4.40;;;;;;;26.60;37.07;101188.44;1794452;79;21013;-74
2021/08/14 09:24:47;;;;;;;8.97;3.97;;;;;;;26.49;37.26;101187.33;1798654;78;21038;-74
2021/08/14 09:27:16;;;;;;;6.43;3.87;;;;;;;26.49;37.78;101181.31;1791921;79;21041;-74
2021/08/14 09:29:46;;;;;;;9.47;5.20;;;;;;;26.58;37.31;101170.96;1791782;79;21100;-74
2021/08/14 09:32:15;;;;;;;8.90;4.70;;;;;;;26.62;37.75;101169.69;1789210;79;21023;-74
2021/08/14 09:34:44;;;;;;;8.10;5.13;;;;;;;26.54;38.06;101165.97;1790731;78;21442;-74
2021/08/14 09:37:15;;;;;;;6.62;4.67;;;;;;;26.44;38.17;101169.98;1794482;78;21057;-74
2021/08/14 09:39:57;;;;;;;8.70;4.57;;;;;;;26.40;37.54;101171.83;1791116;78;21283;-73
2021/08/14 09:42:25;;;;;;;8.07;4.90;;;;;;;26.35;38.19;101162.48;1791819;79;21094;-74
2021/08/14 09:45:16;;;;;;;6.80;4.47;;;;;;;26.37;37.82;101161.58;1794001;78;21057;-74
2021/08/14 09:47:46;;;;;;;6.37;4.57;;;;;;;26.40;37.97;101156.77;1788631;79;21068;-74
2021/08/14 09:50:13;;;;;;;8.87;4.13;;;;;;;26.52;37.51;101161.98;1793821;79;20999;-75
2021/08/14 09:52:41;;;;;;;8.93;4.00;;;;;;;26.59;36.78;101154.77;1794805;78;21710;-74
2021/08/14 09:55:23;;;;;;;6.33;4.17;;;;;;;26.60;35.58;101156.34;1795309;78;21140;-73
2021/08/14 09:57:59;;;;;;;;;;;;;;;26.61;36.11;101152.45;1800402;79;21125;-74
2021/08/14 10:00:28;;;;;;;5.40;3.67;;;;;;;26.72;36.48;101152.75;1822869;78;20549;-74
2021/08/14 10:02:57;;;;;;;6.93;4.33;;;;;;;26.76;35.22;101150.89;1714290;80;21079;-73
2021/08/14 10:05:23;;;;;;;6.47;3.90;;;;;;;26.68;34.98;101147.73;1678764;82;20999;-74
2021/08/14 10:07:51;;;;;;;6.40;4.40;;;;;;;26.68;35.50;101146.36;1680852;84;21121;-74
2021/08/14 10:10:18;;;;;;;6.33;4.53;;;;;;;26.72;35.06;101145.91;1650161;85;21000;-74
2021/08/14 10:12:46;;;;;;;7.03;4.80;;;;;;;26.78;34.83;101144.47;1670305;84;21045;-73
2021/08/14 10:15:14;;;;;;;6.30;4.50;;;;;;;26.84;34.35;101138.95;1678216;84;21078;-75
2021/08/14 10:17:43;;;;;;;7.10;4.27;;;;;;;26.93;34.32;101133.30;1675988;84;21075;-75
2021/08/14 10:20:12;;;;;;;7.20;4.63;;;;;;;27.04;35.12;101133.55;1675779;84;22276;-74
2021/08/14 10:22:38;;;;;;;10.23;4.60;;;;;;;27.11;34.76;101140.58;1675620;84;21086;-74
2021/08/14 10:25:06;;;;;;;7.13;4.40;;;;;;;27.09;34.47;101137.41;1674390;84;21003;-74
2021/08/14 10:27:55;;;;;;;8.43;4.40;;;;;;;27.09;33.83;101128.60;1674596;84;21643;-73
2021/08/14 10:30:46;;;;;;;7.33;4.23;;;;;;;27.12;34.38;101136.70;1670953;84;21031;-73
2021/08/14 10:33:32;;;;;;;7.13;4.00;;;;;;;27.25;34.61;101125.08;1673649;84;21132;-74
2021/08/14 10:36:18;;;;;;;6.97;4.50;;;;;;;27.41;33.93;101118.98;1673456;84;21261;-75
2021/08/14 10:38:51;;;;;;;5.87;3.87;;;;;;;27.48;33.52;101119.73;1671036;84;21090;-74
2021/08/14 10:41:17;;;;;;;;;;;;;;;27.48;32.78;101115.03;1675995;84;21070;-75
2021/08/14 10:43:57;;;;;;;5.87;4.00;;;;;;;27.46;33.07;101111.05;1674287;83;20192;-75
2021/08/14 10:46:48;;;;;;;7.23;4.30;;;;;;;27.48;34.05;101108.75;1674697;84;22160;-74
2021/08/14 10:49:35;;;;;;;9.50;4.00;;;;;;;27.56;34.11;101110.48;1674325;84;21031;-74
2021/08/14 10:52:08;;;;;;;7.07;4.33;;;;;;;27.62;33.77;101089.84;1695404;84;21674;-74
2021/08/14 10:54:57;;;;;;;7.60;4.30;;;;;;;27.68;34.88;101102.70;1694720;83;21246;-73
2021/08/14 10:57:44;;;;;;;9.47;4.03;;;;;;;27.67;32.85;101100.52;1673252;82;21192;-73
2021/08/14 11:00:24;;;;;;;5.83;3.97;;;;;;;27.65;32.53;101097.36;1678278;84;22429;-74
2021/08/14 11:03:03;;;;;;;8.50;4.00;;;;;;;27.65;32.77;101100.09;1664823;84;21212;-74
2021/08/14 11:05:29;;;;;;;5.77;3.93;;;;;;;27.68;33.03;101096.63;1672197;84;21208;-73
2021/08/14 11:08:00;;;;;;;7.93;4.17;;;;;;;27.63;32.50;101099.66;1678111;83;21050;-75
2021/08/14 11:10:40;;;;;;;7.00;3.63;;;;;;;27.55;32.40;101096.55;1675178;84;21160;-73
2021/08/14 11:13:33;;;;;;;7.17;3.90;;;;;;;27.54;31.98;101094.94;1673184;84;21866;-74
2021/08/14 11:16:01;;;;;;;6.60;3.83;;;;;;;27.51;32.84;101092.36;1640776;85;21799;-74
2021/08/14 11:18:56;;;;;;;9.30;4.20;;;;;;;27.59;31.78;101091.34;1676100;84;21568;-74
2021/08/14 11:21:43;;;;;;;9.27;3.93;;;;;;;27.64;31.82;101092.20;1676622;84;21046;-74
2021/08/14 11:24:10;;;;;;;7.43;4.20;;;;;;;27.67;31.36;101086.80;1649630;87;21835;-74
2021/08/14 11:26:39;;;;;;;6.03;3.77;;;;;;;27.77;31.41;101081.34;1666032;84;21505;-74
2021/08/14 11:29:06;;;;;;;7.17;3.87;;;;;;;27.80;31.35;101073.17;1676388;84;21066;-75